createdAt,value
2023-12-11T00:03:00.003Z,5.32
2023-12-11T00:07:01.672Z,5.03
2023-12-11T00:11:03.825Z,5.08
2023-12-11T00:15:06.328Z,5.00
2023-12-11T00:19:09.223Z,5.01
2023-12-11T00:23:11.175Z,5.09
2023-12-11T00:27:13.081Z,5.12
2023-12-11T00:31:14.753Z,5.18
2023-12-11T00:35:16.508Z,5.12
2023-12-11T00:39:18.118Z,5.16
2023-12-11T00:43:20.078Z,5.09
2023-12-11T00:47:21.797Z,4.86
2023-12-11T00:51:23.684Z,4.64
2023-12-11T00:55:25.330Z,4.79
2023-12-11T00:59:26.999Z,4.53
2023-12-11T01:03:28.857Z,4.72
2023-12-11T01:07:31.172Z,4.64
2023-12-11T01:11:33.096Z,5.01
2023-12-11T01:15:34.967Z,4.99
2023-12-11T01:19:36.959Z,4.74
2023-12-11T01:23:38.737Z,4.91
2023-12-11T01:27:40.346Z,4.89
2023-12-11T01:31:41.885Z,4.45
2023-12-11T01:35:43.561Z,4.71
2023-12-11T01:39:45.481Z,4.48
2023-12-11T01:43:57.029Z,4.34
2023-12-11T01:47:58.876Z,4.45
2023-12-11T01:52:00.707Z,4.49
2023-12-11T01:56:03.212Z,4.66
2023-12-11T02:00:06.756Z,4.66
2023-12-11T02:04:09.930Z,4.68
2023-12-11T02:08:12.034Z,4.70
2023-12-11T02:12:13.764Z,4.66
2023-12-11T02:16:18.903Z,5.09
2023-12-11T02:20:20.842Z,5.02
2023-12-11T02:24:26.586Z,4.85
2023-12-11T02:28:28.398Z,4.70
2023-12-11T02:32:30.166Z,5.07
2023-12-11T02:36:31.958Z,5.16
2023-12-11T02:40:33.671Z,4.70
2023-12-11T02:44:35.233Z,4.88
2023-12-11T02:48:37.209Z,4.71
2023-12-11T02:52:39.134Z,4.43
2023-12-11T02:56:43.681Z,4.95
2023-12-11T03:00:45.682Z,4.95
2023-12-11T03:04:47.505Z,4.97
2023-12-11T03:08:49.449Z,4.26
2023-12-11T03:12:51.557Z,4.64
2023-12-11T03:16:53.712Z,4.90
2023-12-11T03:20:55.677Z,4.30
2023-12-11T03:24:57.457Z,4.34
2023-12-11T03:28:59.034Z,4.48
2023-12-11T03:33:00.724Z,4.56
2023-12-11T03:37:02.551Z,4.52
2023-12-11T03:41:05.396Z,4.53
2023-12-11T03:45:07.658Z,4.34
2023-12-11T03:49:09.452Z,4.29
2023-12-11T03:53:11.473Z,4.44
2023-12-11T03:57:13.387Z,4.36
2023-12-11T04:01:15.215Z,4.69
2023-12-11T04:05:17.033Z,4.79
2023-12-11T04:09:18.709Z,4.68
2023-12-11T04:13:20.721Z,4.70
2023-12-11T04:17:22.921Z,4.67
2023-12-11T04:21:24.872Z,4.50
2023-12-11T04:25:26.515Z,4.54
2023-12-11T04:29:28.094Z,4.78
2023-12-11T04:33:30.187Z,4.54
2023-12-11T04:37:32.169Z,4.55
2023-12-11T04:41:34.158Z,4.74
2023-12-11T04:45:35.830Z,4.89
2023-12-11T04:49:37.673Z,4.92
2023-12-11T04:53:39.445Z,4.94
2023-12-11T04:57:41.297Z,4.92
2023-12-11T05:01:43.138Z,4.85
2023-12-11T05:05:44.912Z,4.97
2023-12-11T05:09:47.117Z,5.03
2023-12-11T05:13:48.785Z,4.98
2023-12-11T05:17:50.371Z,4.48
2023-12-11T05:21:53.865Z,4.54
2023-12-11T05:25:57.681Z,4.86
2023-12-11T05:29:59.421Z,3.94
2023-12-11T05:34:01.244Z,4.80
2023-12-11T05:38:03.023Z,4.59
2023-12-11T05:42:05.025Z,4.45
2023-12-11T05:46:07.459Z,4.39
2023-12-11T05:50:09.572Z,4.42
2023-12-11T05:54:11.215Z,4.19
2023-12-11T05:58:13.216Z,4.34
2023-12-11T06:02:15.763Z,4.36
2023-12-11T06:06:17.704Z,4.25
2023-12-11T06:10:19.636Z,4.36
2023-12-11T06:14:21.415Z,4.53
2023-12-11T06:18:23.255Z,4.15
2023-12-11T06:22:25.234Z,4.53
2023-12-11T06:26:31.618Z,4.32
2023-12-11T06:30:33.428Z,4.65
2023-12-11T06:34:35.710Z,4.48
2023-12-11T06:38:38.135Z,4.40
2023-12-11T06:42:40.252Z,4.26
2023-12-11T06:46:42.116Z,4.16
2023-12-11T06:50:43.756Z,4.45
2023-12-11T06:54:45.460Z,4.85
2023-12-11T06:58:47.436Z,4.57
2023-12-11T07:02:49.188Z,4.76
2023-12-11T07:06:50.888Z,4.15
2023-12-11T07:10:52.679Z,4.18
2023-12-11T07:14:54.698Z,4.89
2023-12-11T07:18:56.774Z,5.00
2023-12-11T07:22:58.748Z,4.97
2023-12-11T07:27:00.812Z,4.69
2023-12-11T07:31:03.962Z,4.32
2023-12-11T07:35:08.022Z,4.84
2023-12-11T07:39:10.805Z,4.87
2023-12-11T07:43:13.029Z,5.13
2023-12-11T07:47:15.180Z,4.93
2023-12-11T07:51:21.596Z,4.84
2023-12-11T07:55:24.239Z,4.77
2023-12-11T07:59:26.050Z,4.55
2023-12-11T08:03:27.668Z,4.51
2023-12-11T08:07:29.508Z,4.51
2023-12-11T08:11:31.407Z,4.62
2023-12-11T08:15:37.612Z,4.76
2023-12-11T08:19:40.092Z,4.77
2023-12-11T08:23:46.104Z,4.84
2023-12-11T08:27:47.828Z,4.81
2023-12-11T08:31:50.476Z,4.89
2023-12-11T08:35:52.130Z,4.87
2023-12-11T08:39:53.998Z,5.02
2023-12-11T08:43:56.611Z,5.26
2023-12-11T08:47:58.348Z,4.64
2023-12-11T08:52:01.551Z,5.45
2023-12-11T08:56:03.859Z,5.54
2023-12-11T09:00:06.803Z,5.32
2023-12-11T09:04:08.834Z,5.70
2023-12-11T09:08:10.881Z,5.81
2023-12-11T09:12:23.116Z,5.10
2023-12-11T09:16:32.529Z,5.00
2023-12-11T09:20:34.438Z,5.50
2023-12-11T09:24:36.742Z,6.00
2023-12-11T09:28:48.270Z,6.21
2023-12-11T09:32:53.540Z,6.22
2023-12-11T09:36:55.773Z,6.32
2023-12-11T09:40:59.610Z,6.33
2023-12-11T09:45:04.459Z,6.08
2023-12-11T09:49:06.376Z,6.16
2023-12-11T09:53:09.524Z,6.22
2023-12-11T09:57:16.266Z,6.21
2023-12-11T10:01:19.286Z,6.27
2023-12-11T10:05:25.750Z,5.95
2023-12-11T10:09:31.717Z,6.55
2023-12-11T10:13:33.417Z,6.23
2023-12-11T10:17:35.345Z,6.53
2023-12-11T10:21:41.533Z,6.40
2023-12-11T10:25:45.725Z,6.21
2023-12-11T10:29:47.322Z,6.65
2023-12-11T10:33:50.748Z,6.45
2023-12-11T10:37:59.783Z,6.34
2023-12-11T10:46:41.364Z,6.23
2023-12-11T11:33:28.424Z,6.44
2023-12-11T11:37:59.376Z,6.24
2023-12-11T11:42:21.880Z,6.74
2023-12-11T11:47:14.357Z,6.80
2023-12-11T11:51:47.600Z,6.21
2023-12-11T11:56:14.064Z,5.74
2023-12-11T12:01:10.815Z,6.41
2023-12-11T12:05:39.520Z,6.21
2023-12-11T12:14:35.624Z,6.69
2023-12-11T12:18:53.237Z,6.93
2023-12-11T12:23:21.090Z,6.77
2023-12-11T12:27:46.932Z,6.60
2023-12-11T12:32:07.011Z,6.79
2023-12-11T12:36:21.178Z,6.76
2023-12-11T12:40:34.598Z,6.83
2023-12-11T12:44:40.826Z,6.25
2023-12-11T12:48:43.459Z,6.52
2023-12-11T12:52:45.210Z,6.23
2023-12-11T12:57:02.614Z,6.87
2023-12-11T13:01:05.701Z,7.16
2023-12-11T13:05:08.453Z,6.82
2023-12-11T13:09:11.814Z,6.27
2023-12-11T13:13:15.427Z,6.78
2023-12-11T13:17:17.221Z,7.02
2023-12-11T13:21:19.249Z,6.30
2023-12-11T13:25:21.116Z,5.94
2023-12-11T13:29:22.889Z,5.69
2023-12-11T13:33:25.158Z,5.82
2023-12-11T13:37:27.011Z,6.01
2023-12-11T13:41:28.829Z,6.24
2023-12-11T13:45:30.790Z,6.39
2023-12-11T13:49:33.969Z,6.25
2023-12-11T13:53:36.789Z,5.83
2023-12-11T13:57:38.891Z,5.66
2023-12-11T14:01:40.639Z,5.60
2023-12-11T14:05:42.720Z,5.57
2023-12-11T14:09:44.520Z,5.35
2023-12-11T14:13:46.285Z,5.85
2023-12-11T14:17:48.640Z,5.46
2023-12-11T14:21:50.443Z,5.08
2023-12-11T14:25:52.409Z,5.43
2023-12-11T14:29:54.222Z,5.70
2023-12-11T14:33:56.076Z,5.36
2023-12-11T14:37:57.971Z,5.38
2023-12-11T14:41:59.716Z,4.83
2023-12-11T14:46:01.354Z,5.12
2023-12-11T14:50:03.603Z,5.22
2023-12-11T14:54:08.840Z,5.43
2023-12-11T14:58:10.709Z,5.43
2023-12-11T15:02:13.638Z,5.27
2023-12-11T15:06:15.386Z,5.41
2023-12-11T15:10:17.219Z,5.43
2023-12-11T15:14:19.183Z,5.90
2023-12-11T15:18:21.376Z,6.04
2023-12-11T15:22:23.275Z,5.62
2023-12-11T15:26:25.511Z,5.22
2023-12-11T15:30:27.286Z,5.48
2023-12-11T15:34:29.388Z,5.15
2023-12-11T15:38:32.262Z,5.13
2023-12-11T15:42:37.236Z,5.38
2023-12-11T15:46:41.933Z,5.04
2023-12-11T15:50:43.862Z,5.39
2023-12-11T15:54:45.796Z,5.30
2023-12-11T15:58:47.486Z,5.25
2023-12-11T16:02:49.244Z,4.79
2023-12-11T16:06:51.086Z,4.46
2023-12-11T16:10:53.123Z,4.21
2023-12-11T16:14:55.158Z,4.55
2023-12-11T16:18:57.201Z,4.02
2023-12-11T16:22:59.066Z,3.58
2023-12-11T16:27:01.069Z,4.07
2023-12-11T16:31:03.061Z,4.06
2023-12-11T16:35:06.743Z,3.78
2023-12-11T16:39:08.652Z,3.66
2023-12-11T16:43:10.608Z,3.86
2023-12-11T16:47:12.815Z,3.51
2023-12-11T16:51:15.113Z,3.88
2023-12-11T16:55:18.018Z,3.73
2023-12-11T16:59:20.457Z,4.15
2023-12-11T17:03:22.422Z,4.33
2023-12-11T17:07:24.203Z,4.34
2023-12-11T17:11:26.021Z,4.46
2023-12-11T17:15:28.293Z,4.40
2023-12-11T17:19:30.229Z,4.84
2023-12-11T17:23:32.707Z,4.73
2023-12-11T17:27:35.053Z,4.10
2023-12-11T17:31:36.891Z,4.43
2023-12-11T17:35:38.781Z,4.49
2023-12-11T17:39:40.576Z,4.50
2023-12-11T17:43:42.621Z,4.46
2023-12-11T17:47:44.383Z,3.89
2023-12-11T17:51:47.082Z,4.27
2023-12-11T17:55:48.873Z,4.19
2023-12-11T17:59:50.633Z,4.30
2023-12-11T18:03:52.594Z,4.38
2023-12-11T18:07:54.339Z,4.63
2023-12-11T18:11:55.967Z,4.32
2023-12-11T18:15:57.639Z,4.38
2023-12-11T18:19:59.561Z,4.49
2023-12-11T18:24:01.463Z,4.41
2023-12-11T18:28:03.690Z,4.23
2023-12-11T18:32:06.080Z,4.37
2023-12-11T18:36:08.100Z,4.41
2023-12-11T18:40:10.466Z,4.50
2023-12-11T18:44:12.161Z,4.63
2023-12-11T18:48:13.860Z,4.53
2023-12-11T18:52:18.182Z,4.57
2023-12-11T18:56:20.833Z,4.55
2023-12-11T19:00:22.639Z,4.52
2023-12-11T19:04:24.485Z,4.53
2023-12-11T19:08:26.226Z,4.60
2023-12-11T19:12:27.856Z,4.73
2023-12-11T19:16:29.688Z,4.63
2023-12-11T19:20:31.425Z,4.71
2023-12-11T19:24:33.126Z,4.80
2023-12-11T19:28:34.951Z,4.81
2023-12-11T19:32:36.804Z,4.76
2023-12-11T19:36:42.654Z,4.71
2023-12-11T19:40:44.367Z,4.69
2023-12-11T19:44:45.984Z,4.72
2023-12-11T19:48:47.768Z,4.64
2023-12-11T19:52:51.284Z,4.77
2023-12-11T19:56:54.239Z,4.49
2023-12-11T20:00:56.280Z,4.55
2023-12-11T20:04:58.136Z,4.48
2023-12-11T20:08:59.796Z,4.47
2023-12-11T20:13:01.580Z,4.32
2023-12-11T20:17:04.541Z,4.06
2023-12-11T20:21:06.342Z,4.02
2023-12-11T20:25:08.356Z,4.07
2023-12-11T20:29:11.705Z,4.19
2023-12-11T20:33:13.455Z,4.14
2023-12-11T20:37:15.558Z,4.39
2023-12-11T20:41:21.488Z,4.35
2023-12-11T20:45:23.988Z,4.26
2023-12-11T20:49:26.105Z,4.11
2023-12-11T20:53:28.224Z,3.91
2023-12-11T20:57:32.975Z,4.36
2023-12-11T21:01:37.294Z,4.34
2023-12-11T21:05:40.082Z,4.34
2023-12-11T21:09:43.649Z,4.46
2023-12-11T21:13:46.211Z,4.48
2023-12-11T21:17:48.001Z,4.33
2023-12-11T21:21:49.797Z,4.45
2023-12-11T21:25:51.682Z,4.60
2023-12-11T21:29:53.541Z,4.65
2023-12-11T21:33:56.310Z,4.62
2023-12-11T21:37:58.114Z,4.70
2023-12-11T21:41:59.875Z,4.67
2023-12-11T21:46:01.771Z,4.71
2023-12-11T21:50:03.787Z,4.54
2023-12-11T21:54:06.562Z,4.74
2023-12-11T21:58:08.241Z,4.60
2023-12-11T22:02:09.953Z,4.66
2023-12-11T22:06:14.410Z,4.80
2023-12-11T22:10:16.134Z,4.73
2023-12-11T22:14:17.970Z,4.16
2023-12-11T22:18:19.830Z,4.32
2023-12-11T22:22:21.743Z,4.39
2023-12-11T22:26:23.605Z,4.63
2023-12-11T22:30:25.550Z,4.45
2023-12-11T22:34:27.648Z,4.44
2023-12-11T22:38:29.936Z,4.52
2023-12-11T22:42:31.798Z,4.40
2023-12-11T22:46:35.360Z,4.43
2023-12-11T22:50:38.055Z,4.33
2023-12-11T22:54:39.859Z,4.27
2023-12-11T22:58:41.759Z,3.83
2023-12-11T23:02:43.783Z,3.93
2023-12-11T23:06:45.521Z,4.07
2023-12-11T23:10:47.191Z,4.08
2023-12-11T23:14:49.022Z,4.15
2023-12-11T23:18:50.754Z,3.82
2023-12-11T23:22:55.379Z,4.19
2023-12-11T23:26:57.091Z,4.32
2023-12-11T23:30:58.903Z,4.36
2023-12-11T23:35:00.631Z,4.40
2023-12-11T23:39:02.251Z,4.48
2023-12-11T23:43:04.021Z,4.54
2023-12-11T23:47:06.522Z,4.47
2023-12-11T23:51:08.169Z,4.23
2023-12-11T23:55:09.877Z,4.68
2023-12-11T23:59:11.657Z,4.64
